Time;durP1;ratioP1;P1;durP2;ratioP2;P2;SDS_P1;SDS_P2;PMS_P1;PMS_P2;Temp;Humidity;BMP_temperature;BMP_pressure;BME280_temperature;BME280_humidity;BME280_pressure;Samples;Min_cycle;Max_cycle;Signal;HPM_P1;HPM_P2
2024/04/23 00:01:56;;;;;;;8.18;5.50;;;3.70;99.90;;;;;;5284315;27;20028;-71
2024/04/23 00:04:22;;;;;;;7.95;4.75;;;3.70;99.90;;;;;;5268631;27;19998;-72
2024/04/23 00:06:58;;;;;;;5.97;4.93;;;3.60;99.90;;;;;;5269064;27;20012;-73
2024/04/23 00:09:24;;;;;;;7.85;5.80;;;3.70;99.90;;;;;;5290141;27;20051;-74
2024/04/23 00:11:49;;;;;;;6.80;4.88;;;3.60;99.90;;;;;;5256346;27;20002;-73
2024/04/23 00:14:15;;;;;;;6.68;4.53;;;3.60;99.90;;;;;;5273240;27;19998;-72
2024/04/23 00:16:40;;;;;;;5.15;4.63;;;3.60;99.90;;;;;;5267367;26;20001;-72
2024/04/23 00:19:06;;;;;;;5.53;4.05;;;3.50;99.90;;;;;;5262229;27;20003;-72
2024/04/23 00:21:32;;;;;;;7.85;6.75;;;3.50;99.90;;;;;;5295983;27;20006;-73
2024/04/23 00:23:58;;;;;;;7.22;5.82;;;3.40;99.90;;;;;;5293197;26;20001;-74
2024/04/23 00:26:23;;;;;;;7.55;5.07;;;3.30;99.90;;;;;;5288394;27;20418;-72
2024/04/23 00:28:49;;;;;;;8.25;5.03;;;3.20;99.90;;;;;;5303524;27;20553;-72
2024/04/23 00:31:15;;;;;;;9.07;6.00;;;3.20;99.90;;;;;;5303642;26;20025;-73
2024/04/23 00:33:40;;;;;;;6.78;5.28;;;3.10;99.90;;;;;;5295780;27;20006;-72
2024/04/23 00:36:06;;;;;;;7.68;4.97;;;3.10;99.90;;;;;;5294403;26;19998;-72
2024/04/23 00:38:32;;;;;;;6.50;5.20;;;3.10;99.90;;;;;;5259337;27;20005;-73
2024/04/23 00:40:57;;;;;;;6.90;5.13;;;3.00;99.90;;;;;;5293361;27;20004;-72
2024/04/23 00:43:23;;;;;;;7.20;5.80;;;3.00;99.90;;;;;;5289694;27;20467;-73
2024/04/23 00:45:55;;;;;;;7.63;5.50;;;2.90;99.90;;;;;;5296094;26;19998;-72
2024/04/23 00:48:22;;;;;;;8.43;5.28;;;2.90;99.90;;;;;;5291655;26;20006;-74
2024/04/23 00:50:48;;;;;;;8.25;5.68;;;2.90;99.90;;;;;;5295995;26;20567;-72
2024/04/23 00:53:15;;;;;;;7.63;5.78;;;2.90;99.90;;;;;;5267316;27;20006;-73
2024/04/23 00:55:42;;;;;;;6.90;4.60;;;2.90;99.90;;;;;;5289681;26;20007;-72
2024/04/23 00:58:08;;;;;;;6.35;4.35;;;2.90;99.90;;;;;;5293519;26;20106;-73
2024/04/23 01:00:34;;;;;;;8.10;5.13;;;3.00;99.90;;;;;;5275366;26;20026;-72
2024/04/23 01:03:00;;;;;;;7.35;5.00;;;3.00;99.90;;;;;;5290555;27;20002;-73
2024/04/23 01:05:26;;;;;;;5.60;4.15;;;3.00;99.90;;;;;;5282728;26;20034;-72
2024/04/23 01:07:52;;;;;;;6.72;4.90;;;3.00;99.90;;;;;;5264119;27;19993;-72
2024/04/23 01:10:18;;;;;;;5.30;4.47;;;3.00;99.90;;;;;;5295993;27;20021;-72
2024/04/23 01:12:43;;;;;;;6.15;4.43;;;3.00;99.90;;;;;;5289742;26;20020;-72
2024/04/23 01:15:11;;;;;;;8.18;5.70;;;3.00;99.90;;;;;;5287995;26;20014;-72
2024/04/23 01:17:39;;;;;;;7.13;5.18;;;3.00;99.90;;;;;;5282240;26;20597;-72
2024/04/23 01:20:08;;;;;;;7.25;5.70;;;3.00;99.90;;;;;;5262864;27;20002;-72
2024/04/23 01:23:16;;;;;;;6.43;4.65;;;3.00;99.90;;;;;;5292851;26;20672;-71
2024/04/23 01:25:44;;;;;;;7.82;5.57;;;3.10;99.90;;;;;;5280299;26;19997;-70
2024/04/23 01:28:12;;;;;;;6.80;5.30;;;3.10;99.90;;;;;;5292771;27;20013;-73
2024/04/23 01:30:37;;;;;;;7.85;5.35;;;3.10;99.90;;;;;;5264685;26;20006;-72
2024/04/23 01:33:06;;;;;;;6.65;4.75;;;3.10;99.90;;;;;;5288388;26;20002;-72
2024/04/23 01:35:32;;;;;;;6.57;4.95;;;3.10;99.90;;;;;;5292433;27;20001;-73
2024/04/23 01:38:00;;;;;;;6.03;4.55;;;3.10;99.90;;;;;;5291728;27;20006;-72
2024/04/23 01:40:26;;;;;;;6.38;5.50;;;3.10;99.90;;;;;;5290115;26;20359;-72
2024/04/23 01:42:53;;;;;;;6.38;5.13;;;3.10;99.90;;;;;;5288721;27;20010;-72
2024/04/23 01:45:21;;;;;;;9.30;5.15;;;3.10;99.90;;;;;;5264273;27;20016;-72
2024/04/23 01:47:46;;;;;;;6.82;5.85;;;3.00;99.90;;;;;;5290175;27;20013;-72
2024/04/23 01:50:13;;;;;;;5.90;5.05;;;3.00;99.90;;;;;;5290878;27;20084;-72
2024/04/23 01:52:39;;;;;;;7.68;5.30;;;3.00;99.90;;;;;;5292547;27;20013;-72
2024/04/23 01:55:05;;;;;;;7.80;5.65;;;3.00;99.90;;;;;;5255054;27;19998;-73
2024/04/23 01:57:31;;;;;;;7.45;5.50;;;2.90;99.90;;;;;;5296074;26;20025;-72
2024/04/23 02:00:02;;;;;;;8.98;4.60;;;2.90;99.90;;;;;;5287126;27;20006;-74
2024/04/23 02:02:28;;;;;;;6.32;5.22;;;2.90;99.90;;;;;;5296229;27;20038;-74
2024/04/23 02:04:55;;;;;;;7.97;6.20;;;2.80;99.90;;;;;;5289998;27;20570;-73
2024/04/23 02:07:20;;;;;;;8.05;6.28;;;2.80;99.90;;;;;;5286830;27;20006;-74
2024/04/23 02:09:48;;;;;;;11.50;5.65;;;2.70;99.90;;;;;;5288333;27;20076;-72
2024/04/23 02:12:14;;;;;;;7.68;5.18;;;2.60;99.90;;;;;;5297557;26;20004;-73
2024/04/23 02:14:41;;;;;;;7.00;6.03;;;2.60;99.90;;;;;;5294117;27;20708;-74
2024/04/23 02:17:07;;;;;;;7.95;5.97;;;2.60;99.90;;;;;;5290589;26;20510;-72
2024/04/23 02:19:32;;;;;;;7.65;5.60;;;2.60;99.90;;;;;;5267351;27;20048;-72
2024/04/23 02:21:58;;;;;;;8.50;5.72;;;2.50;99.90;;;;;;5265939;26;20006;-76
2024/04/23 02:24:23;;;;;;;7.15;5.55;;;2.50;99.90;;;;;;5256355;27;21583;-71
2024/04/23 02:26:49;;;;;;;7.80;5.50;;;2.40;99.90;;;;;;5261798;27;20013;-71
2024/04/23 02:29:15;;;;;;;8.10;5.68;;;2.50;99.90;;;;;;5285000;27;19997;-73
2024/04/23 02:31:40;;;;;;;8.93;5.85;;;2.40;99.90;;;;;;5288591;26;20523;-72
2024/04/23 02:34:06;;;;;;;6.78;5.60;;;2.40;99.90;;;;;;5285438;26;19997;-71
2024/04/23 02:36:31;;;;;;;8.35;5.40;;;2.40;99.90;;;;;;5256404;27;20100;-72
2024/04/23 02:38:57;;;;;;;7.97;5.95;;;2.40;99.90;;;;;;5283791;27;20030;-73
2024/04/23 02:41:23;;;;;;;7.05;5.13;;;2.40;99.90;;;;;;5287559;27;20090;-72
2024/04/23 02:43:48;;;;;;;7.60;5.60;;;2.40;99.90;;;;;;5279385;26;20038;-72
2024/04/23 02:46:14;;;;;;;8.05;5.68;;;2.30;99.90;;;;;;5260433;26;20016;-73
2024/04/23 02:48:40;;;;;;;7.65;5.88;;;2.40;99.90;;;;;;5282829;26;19997;-72
2024/04/23 02:51:05;;;;;;;7.28;5.88;;;2.30;99.90;;;;;;5290098;27;20005;-72
2024/04/23 02:53:31;;;;;;;9.38;5.78;;;2.30;99.90;;;;;;5282905;27;20906;-73
2024/04/23 02:55:57;;;;;;;9.70;6.28;;;2.20;99.90;;;;;;5288553;27;20041;-73
2024/04/23 02:58:22;;;;;;;8.60;5.55;;;2.20;99.90;;;;;;5259507;27;20452;-73
2024/04/23 03:00:48;;;;;;;9.45;6.20;;;2.20;99.90;;;;;;5277545;26;19994;-72
2024/04/23 03:03:14;;;;;;;8.85;6.50;;;2.20;99.90;;;;;;5286266;26;20001;-73
2024/04/23 03:05:39;;;;;;;8.98;6.15;;;2.10;99.90;;;;;;5285595;26;19997;-73
2024/04/23 03:08:05;;;;;;;10.68;6.20;;;2.10;99.90;;;;;;5292896;27;20037;-75
2024/04/23 03:10:31;;;;;;;7.68;5.68;;;2.10;99.90;;;;;;5289271;27;20071;-73
2024/04/23 03:12:57;;;;;;;9.98;6.32;;;2.00;99.90;;;;;;5290486;26;20010;-73
2024/04/23 03:15:22;;;;;;;8.15;6.03;;;2.00;99.90;;;;;;5289906;27;19994;-73
2024/04/23 03:17:48;;;;;;;12.75;6.60;;;2.00;99.90;;;;;;5289879;27;20030;-74
2024/04/23 03:20:14;;;;;;;6.97;5.32;;;2.10;99.90;;;;;;5259104;27;20010;-73
2024/04/23 03:22:39;;;;;;;8.40;5.57;;;2.00;99.90;;;;;;5291590;26;20072;-74
2024/04/23 03:25:05;;;;;;;10.90;6.68;;;2.00;99.90;;;;;;5291423;26;20016;-73
2024/04/23 03:27:31;;;;;;;8.73;6.38;;;2.00;99.90;;;;;;5287586;27;20005;-73
2024/04/23 03:29:57;;;;;;;7.70;5.90;;;2.00;99.90;;;;;;5293107;27;20005;-73
2024/04/23 03:32:22;;;;;;;7.03;5.45;;;2.00;99.90;;;;;;5286063;27;20017;-73
2024/04/23 03:34:48;;;;;;;7.97;5.68;;;2.00;99.90;;;;;;5290684;26;19997;-75
2024/04/23 03:37:13;;;;;;;9.50;5.32;;;2.00;99.90;;;;;;5287264;26;20141;-74
2024/04/23 03:39:39;;;;;;;6.88;5.05;;;2.00;99.90;;;;;;5290077;27;20028;-74
2024/04/23 03:42:05;;;;;;;8.70;5.35;;;2.00;99.90;;;;;;5284840;27;20002;-73
2024/04/23 03:44:31;;;;;;;8.82;5.65;;;2.00;99.90;;;;;;5284640;26;20016;-73
2024/04/23 03:46:56;;;;;;;9.43;6.38;;;2.00;99.90;;;;;;5261351;27;20509;-73
2024/04/23 03:49:22;;;;;;;10.43;6.00;;;2.00;99.90;;;;;;5294360;27;20002;-75
2024/04/23 03:51:48;;;;;;;8.65;5.35;;;1.90;99.90;;;;;;5291220;27;20002;-73
2024/04/23 03:54:13;;;;;;;10.85;5.68;;;2.00;99.90;;;;;;5287998;27;20885;-74
2024/04/23 03:56:39;;;;;;;9.57;5.55;;;2.00;99.90;;;;;;5286698;26;20001;-73
2024/04/23 03:59:04;;;;;;;7.45;5.80;;;2.00;99.90;;;;;;5287631;27;20463;-73
2024/04/23 04:01:30;;;;;;;6.95;5.47;;;2.00;99.90;;;;;;5287069;26;20460;-70
2024/04/23 04:06:40;;;;;;;8.63;5.50;;;1.90;99.90;;;;;;5283840;26;20029;-72
2024/04/23 04:09:07;;;;;;;9.07;6.47;;;2.00;99.90;;;;;;5288136;26;20014;-71
2024/04/23 04:11:34;;;;;;;7.53;5.00;;;1.90;99.90;;;;;;5287030;26;20001;-72
2024/04/23 04:14:03;;;;;;;8.00;5.40;;;2.00;99.90;;;;;;5297903;27;22550;-71
2024/04/23 04:16:30;;;;;;;8.15;5.03;;;2.00;99.90;;;;;;5290300;27;20005;-71
2024/04/23 04:18:56;;;;;;;8.15;5.78;;;1.90;99.90;;;;;;5295786;27;20001;-71
2024/04/23 04:21:22;;;;;;;6.03;5.10;;;2.00;99.90;;;;;;5264877;27;20479;-74
2024/04/23 04:23:47;;;;;;;5.47;4.75;;;2.00;99.90;;;;;;5297350;26;20017;-72
2024/04/23 04:26:14;;;;;;;7.75;5.13;;;2.00;99.90;;;;;;5284369;27;20355;-72
2024/04/23 04:28:41;;;;;;;7.13;4.88;;;2.00;99.90;;;;;;5268783;27;20497;-73
2024/04/23 04:31:07;;;;;;;8.15;5.43;;;2.00;99.90;;;;;;5293525;26;20034;-75
2024/04/23 04:33:33;;;;;;;10.40;5.50;;;2.00;99.90;;;;;;5294424;27;20316;-73
2024/04/23 04:35:59;;;;;;;5.95;4.85;;;2.00;99.90;;;;;;5266382;27;20002;-75
2024/04/23 04:38:25;;;;;;;7.45;5.65;;;2.00;99.90;;;;;;5294306;27;19997;-73
2024/04/23 04:40:50;;;;;;;7.47;6.38;;;2.00;99.90;;;;;;5267460;26;20018;-72
2024/04/23 04:43:16;;;;;;;8.80;5.68;;;2.00;99.90;;;;;;5262582;27;20044;-72
2024/04/23 04:45:43;;;;;;;6.43;5.70;;;2.00;99.90;;;;;;5294554;27;20862;-72
2024/04/23 04:48:09;;;;;;;7.82;5.38;;;2.00;99.90;;;;;;5291049;26;20055;-73
2024/04/23 04:50:34;;;;;;;9.55;5.60;;;2.00;99.90;;;;;;5290872;26;20080;-73
2024/04/23 04:53:00;;;;;;;6.40;4.47;;;2.00;99.90;;;;;;5291199;26;19994;-72
2024/04/23 04:55:26;;;;;;;7.38;5.32;;;2.00;99.90;;;;;;5257245;27;20018;-72
2024/04/23 04:57:52;;;;;;;10.88;6.78;;;1.90;99.90;;;;;;5280138;26;20001;-72
2024/04/23 05:00:17;;;;;;;8.68;6.03;;;1.90;99.90;;;;;;5285322;27;20435;-72
2024/04/23 05:02:43;;;;;;;7.93;4.80;;;1.90;99.90;;;;;;5287945;27;20382;-72
2024/04/23 05:05:08;;;;;;;7.88;5.18;;;1.80;99.90;;;;;;5291176;27;20037;-71
2024/04/23 05:07:34;;;;;;;8.20;5.60;;;1.80;99.90;;;;;;5288991;26;20009;-73
2024/04/23 05:10:00;;;;;;;11.05;5.90;;;1.80;99.90;;;;;;5291463;27;20009;-72
2024/04/23 05:12:26;;;;;;;8.48;5.07;;;1.70;99.90;;;;;;5290684;27;20001;-72
2024/04/23 05:14:52;;;;;;;7.78;5.47;;;1.80;99.90;;;;;;5293374;27;20065;-72
2024/04/23 05:17:18;;;;;;;8.35;5.38;;;1.80;99.90;;;;;;5293379;26;20463;-71
2024/04/23 05:19:44;;;;;;;6.93;5.22;;;1.80;99.90;;;;;;5293388;26;20002;-72
2024/04/23 05:22:14;;;;;;;7.35;4.93;;;1.80;99.90;;;;;;5296712;27;20279;-72
2024/04/23 05:24:40;;;;;;;7.15;5.07;;;1.80;99.90;;;;;;5293088;26;20482;-72
2024/04/23 05:27:05;;;;;;;6.90;4.93;;;1.80;99.90;;;;;;5292947;26;19998;-72
2024/04/23 05:29:31;;;;;;;6.97;5.65;;;1.80;99.90;;;;;;5291300;27;20009;-72
2024/04/23 05:34:41;;;;;;;8.05;5.22;;;1.90;99.90;;;;;;5291697;27;20036;-73
2024/04/23 05:37:07;;;;;;;7.53;5.47;;;1.90;99.90;;;;;;5262117;27;20014;-73
2024/04/23 05:39:33;;;;;;;7.57;5.55;;;1.90;99.90;;;;;;5290783;26;20001;-72
2024/04/23 05:41:58;;;;;;;8.85;6.20;;;1.90;99.90;;;;;;5264255;27;20113;-72
2024/04/23 05:44:24;;;;;;;10.55;5.93;;;1.90;99.90;;;;;;5290757;27;20735;-73
2024/04/23 05:46:50;;;;;;;6.18;5.53;;;1.90;99.90;;;;;;5284890;27;20461;-73
2024/04/23 05:49:53;;;;;;;7.13;5.72;;;1.90;99.90;;;;;;5286895;26;20135;-72
2024/04/23 05:52:58;;;;;;;7.57;5.38;;;1.90;99.90;;;;;;5287677;26;19997;-72
2024/04/23 05:55:32;;;;;;;6.80;5.22;;;1.90;99.90;;;;;;5286001;27;19999;-72
2024/04/23 05:57:58;;;;;;;7.43;5.63;;;1.90;99.90;;;;;;5290877;27;20002;-73
2024/04/23 06:00:24;;;;;;;10.55;6.35;;;2.00;99.90;;;;;;5267960;27;20006;-72
2024/04/23 06:02:50;;;;;;;6.90;4.70;;;2.00;99.90;;;;;;5293336;26;20045;-72
2024/04/23 06:05:16;;;;;;;7.47;5.50;;;2.00;99.90;;;;;;5263814;27;20014;-72
2024/04/23 06:07:42;;;;;;;7.10;5.00;;;2.00;99.90;;;;;;5292835;27;20080;-72
2024/04/23 06:10:07;;;;;;;7.25;5.47;;;2.00;99.90;;;;;;5253781;27;20069;-72
2024/04/23 06:12:33;;;;;;;7.93;5.55;;;2.00;99.90;;;;;;5256545;27;20034;-73
2024/04/23 06:14:59;;;;;;;8.43;5.95;;;2.00;99.90;;;;;;5289975;27;20018;-72
2024/04/23 06:17:34;;;;;;;8.52;5.20;;;2.00;99.90;;;;;;5293430;27;20344;-73
2024/04/23 06:20:00;;;;;;;8.50;6.00;;;2.10;99.90;;;;;;5262233;26;20139;-73
2024/04/23 06:22:27;;;;;;;9.82;5.88;;;2.10;99.90;;;;;;5293396;26;20483;-72
2024/04/23 06:24:55;;;;;;;13.70;5.47;;;2.10;99.90;;;;;;5253008;27;20006;-72
2024/04/23 06:27:22;;;;;;;7.07;5.20;;;2.20;99.90;;;;;;5290036;27;20006;-73
2024/04/23 06:29:51;;;;;;;6.55;4.55;;;2.20;99.90;;;;;;5288762;26;21023;-73
2024/04/23 06:32:18;;;;;;;7.28;5.63;;;2.20;99.90;;;;;;5286333;26;20382;-72
2024/04/23 06:34:45;;;;;;;7.63;5.38;;;2.20;99.90;;;;;;5290042;26;20005;-72
2024/04/23 06:37:14;;;;;;;8.68;5.40;;;2.20;99.90;;;;;;5288109;26;20130;-72
2024/04/23 06:39:41;;;;;;;7.95;5.72;;;2.30;99.90;;;;;;5228751;27;20014;-72
2024/04/23 06:42:13;;;;;;;8.60;6.38;;;2.30;99.90;;;;;;5243081;27;20685;-72
2024/04/23 06:44:39;;;;;;;8.50;5.07;;;2.40;99.90;;;;;;5225053;27;20014;-73
2024/04/23 06:47:04;;;;;;;8.38;5.55;;;2.40;99.90;;;;;;5219425;27;20054;-72
2024/04/23 06:49:30;;;;;;;9.23;5.45;;;2.50;99.90;;;;;;5222731;27;20007;-73
2024/04/23 06:51:57;;;;;;;7.00;5.00;;;2.50;99.90;;;;;;5224318;27;20014;-73
2024/04/23 06:54:22;;;;;;;10.88;5.75;;;2.60;99.90;;;;;;5223821;27;20006;-72
2024/04/23 06:56:49;;;;;;;7.72;5.55;;;2.60;99.90;;;;;;5216790;27;20066;-73
2024/04/23 06:59:15;;;;;;;9.55;5.72;;;2.70;99.90;;;;;;5222720;27;20051;-73
2024/04/23 07:01:43;;;;;;;9.27;5.70;;;2.80;99.90;;;;;;5220902;27;20030;-74
2024/04/23 07:04:10;;;;;;;8.18;5.20;;;2.90;99.90;;;;;;5251753;27;20712;-71
2024/04/23 07:06:38;;;;;;;9.13;6.05;;;2.90;99.90;;;;;;5224782;27;20011;-72
2024/04/23 07:09:04;;;;;;;6.97;5.45;;;2.90;99.90;;;;;;5214276;27;20014;-72
2024/04/23 07:11:30;;;;;;;7.93;6.05;;;2.80;99.90;;;;;;5222231;27;20464;-71
2024/04/23 07:13:56;;;;;;;9.60;5.53;;;2.90;99.90;;;;;;5250523;27;20011;-72
2024/04/23 07:16:21;;;;;;;8.13;5.60;;;2.90;99.90;;;;;;5214305;27;20014;-72
2024/04/23 07:18:47;;;;;;;8.18;5.80;;;3.00;99.90;;;;;;5214981;27;20337;-72
2024/04/23 07:21:14;;;;;;;7.88;5.85;;;3.00;99.90;;;;;;5219706;27;20074;-73
2024/04/23 07:23:39;;;;;;;5.82;4.80;;;3.10;99.90;;;;;;5214859;27;19999;-72
2024/04/23 07:26:05;;;;;;;7.93;5.90;;;3.10;99.90;;;;;;5222660;27;20742;-72
2024/04/23 07:28:31;;;;;;;10.65;6.30;;;3.10;99.90;;;;;;5216446;27;20026;-73
2024/04/23 07:30:59;;;;;;;8.10;5.97;;;3.00;99.90;;;;;;5227286;27;20017;-72
2024/04/23 07:33:24;;;;;;;7.68;5.18;;;2.90;99.90;;;;;;5219304;27;19995;-72
2024/04/23 07:35:50;;;;;;;6.63;5.10;;;2.90;99.90;;;;;;5225806;27;20014;-73
2024/04/23 07:38:19;;;;;;;6.72;4.60;;;2.80;99.90;;;;;;5244648;26;20347;-72
2024/04/23 07:40:46;;;;;;;7.50;5.65;;;2.90;99.90;;;;;;5292323;27;20008;-73
2024/04/23 07:43:12;;;;;;;11.00;6.65;;;2.90;99.90;;;;;;5295641;27;20017;-72
2024/04/23 07:45:38;;;;;;;8.05;5.30;;;2.90;99.90;;;;;;5268120;27;20079;-72
2024/04/23 07:48:03;;;;;;;10.13;5.88;;;2.90;99.90;;;;;;5288173;27;20009;-72
2024/04/23 07:50:29;;;;;;;7.43;5.88;;;2.90;99.90;;;;;;5266775;27;19994;-72
2024/04/23 07:52:55;;;;;;;7.55;5.63;;;2.90;99.90;;;;;;5258356;27;20522;-73
2024/04/23 07:55:21;;;;;;;7.28;5.07;;;2.80;99.90;;;;;;5259739;27;20014;-72
2024/04/23 07:57:47;;;;;;;10.57;5.72;;;2.80;99.90;;;;;;5292488;27;20016;-72
2024/04/23 08:00:15;;;;;;;7.38;5.50;;;2.80;99.90;;;;;;5284983;27;19999;-71
2024/04/23 08:02:41;;;;;;;7.97;5.63;;;2.80;99.90;;;;;;5295097;27;20017;-71
2024/04/23 08:05:08;;;;;;;7.55;5.50;;;2.70;99.90;;;;;;5295187;27;20003;-72
2024/04/23 08:07:34;;;;;;;6.75;4.70;;;2.80;99.90;;;;;;5292255;27;20007;-71
2024/04/23 08:10:00;;;;;;;8.07;6.22;;;2.80;99.90;;;;;;5247739;26;20001;-72
2024/04/23 08:12:26;;;;;;;7.75;5.50;;;2.80;99.90;;;;;;5289792;27;19999;-71
2024/04/23 08:14:52;;;;;;;7.97;6.05;;;2.80;99.90;;;;;;5287839;26;20448;-72
2024/04/23 08:17:19;;;;;;;8.35;6.35;;;2.70;99.90;;;;;;5263685;27;20006;-71
2024/04/23 08:19:44;;;;;;;8.13;5.55;;;2.70;99.90;;;;;;5287167;26;20016;-71
2024/04/23 08:22:10;;;;;;;10.48;6.05;;;2.60;99.90;;;;;;5289214;26;20592;-71
2024/04/23 08:24:36;;;;;;;8.20;5.65;;;2.70;99.90;;;;;;5299980;26;20020;-73
2024/04/23 08:27:02;;;;;;;9.35;5.18;;;2.70;99.90;;;;;;5258645;26;20014;-73
2024/04/23 08:29:27;;;;;;;8.00;5.43;;;2.70;99.90;;;;;;5292260;26;20021;-73
2024/04/23 08:31:53;;;;;;;6.15;5.15;;;2.70;99.90;;;;;;5255059;27;19997;-72
2024/04/23 08:34:19;;;;;;;6.28;5.38;;;2.70;99.90;;;;;;5291274;27;20267;-73
2024/04/23 08:36:44;;;;;;;8.68;5.85;;;2.70;99.90;;;;;;5289760;27;19994;-73
2024/04/23 08:39:10;;;;;;;7.88;5.75;;;2.80;99.90;;;;;;5285370;27;20010;-73
2024/04/23 08:41:41;;;;;;;10.52;6.10;;;2.80;99.90;;;;;;5282221;26;20304;-73
2024/04/23 08:44:09;;;;;;;8.95;5.70;;;2.80;99.90;;;;;;5258019;26;20024;-72
2024/04/23 08:46:36;;;;;;;6.70;5.35;;;2.80;99.90;;;;;;5290603;27;20005;-72
2024/04/23 08:49:03;;;;;;;10.82;5.97;;;2.80;99.90;;;;;;5259761;26;20084;-73
2024/04/23 08:51:28;;;;;;;9.18;6.05;;;2.80;99.90;;;;;;5260417;27;20075;-72
2024/04/23 08:53:54;;;;;;;7.10;5.68;;;2.80;99.90;;;;;;5257104;27;20445;-72
2024/04/23 08:56:22;;;;;;;9.75;6.45;;;2.80;99.90;;;;;;5276706;26;20079;-72
2024/04/23 08:58:49;;;;;;;10.63;6.20;;;2.80;99.90;;;;;;5255397;26;20075;-72
2024/04/23 09:01:39;;;;;;;8.90;6.25;;;2.80;99.90;;;;;;5288530;27;20006;-72
2024/04/23 09:04:05;;;;;;;8.43;6.32;;;2.80;99.90;;;;;;5277119;26;19998;-72
2024/04/23 09:06:33;;;;;;;9.82;6.80;;;2.90;99.90;;;;;;5285183;27;20084;-72
2024/04/23 09:08:59;;;;;;;9.23;5.75;;;2.80;99.90;;;;;;5260260;27;20533;-72
2024/04/23 09:11:28;;;;;;;11.23;6.15;;;2.80;99.90;;;;;;5291987;27;20001;-72
2024/04/23 09:13:58;;;;;;;10.50;6.57;;;2.80;99.90;;;;;;5256927;27;20038;-73
2024/04/23 09:16:24;;;;;;;9.68;6.32;;;2.80;99.90;;;;;;5266159;27;20006;-73
2024/04/23 09:18:49;;;;;;;9.38;6.28;;;2.80;99.90;;;;;;5293839;27;20092;-73
2024/04/23 09:21:15;;;;;;;9.70;6.68;;;2.80;99.90;;;;;;5258304;27;20009;-72
2024/04/23 09:23:44;;;;;;;9.48;5.88;;;2.70;99.90;;;;;;5266047;27;20001;-73
2024/04/23 09:26:11;;;;;;;7.93;5.85;;;2.70;99.90;;;;;;5266886;27;19998;-74
2024/04/23 09:28:40;;;;;;;11.25;6.47;;;2.70;99.90;;;;;;5295469;26;20012;-72
2024/04/23 09:31:06;;;;;;;7.47;6.03;;;2.70;99.90;;;;;;5269166;27;20538;-73
2024/04/23 09:33:32;;;;;;;9.20;6.72;;;2.70;99.90;;;;;;5292919;27;20471;-77
2024/04/23 09:36:06;;;;;;;8.82;5.80;;;2.70;99.90;;;;;;5269664;27;20009;-73
2024/04/23 09:38:36;;;;;;;8.98;6.18;;;2.60;99.90;;;;;;5292542;26;20013;-72
2024/04/23 09:41:03;;;;;;;8.07;6.03;;;2.70;99.90;;;;;;5266564;27;20009;-73
2024/04/23 09:43:30;;;;;;;7.85;5.75;;;2.70;99.90;;;;;;5266747;27;20095;-73
2024/04/23 09:45:55;;;;;;;8.25;6.40;;;2.80;99.90;;;;;;5262149;27;19998;-73
2024/04/23 09:48:32;;;;;;;9.35;6.95;;;2.80;99.90;;;;;;5289218;26;20456;-74
2024/04/23 09:51:01;;;;;;;9.45;6.05;;;2.80;99.90;;;;;;5265240;27;20080;-73
2024/04/23 09:53:38;;;;;;;8.00;6.50;;;2.80;99.90;;;;;;5261008;27;19997;-72
2024/04/23 09:56:10;;;;;;;7.32;5.90;;;2.90;99.90;;;;;;5289781;27;20386;-72
2024/04/23 09:58:36;;;;;;;8.02;6.30;;;2.80;99.90;;;;;;5295818;27;20006;-72
2024/04/23 10:01:03;;;;;;;8.35;6.82;;;2.90;99.90;;;;;;5260930;27;20451;-73
2024/04/23 10:03:30;;;;;;;10.18;6.30;;;2.90;99.90;;;;;;5265651;27;20005;-73
2024/04/23 10:06:07;;;;;;;8.73;6.25;;;3.00;99.90;;;;;;5266192;27;20365;-73
2024/04/23 10:08:48;;;;;;;9.77;6.38;;;3.00;99.90;;;;;;5295930;27;20594;-72
2024/04/23 10:11:21;;;;;;;8.60;6.07;;;3.10;99.90;;;;;;5296096;26;20478;-73
2024/04/23 10:13:54;;;;;;;7.60;6.53;;;3.10;99.90;;;;;;5295117;27;20579;-72
2024/04/23 10:16:29;;;;;;;8.70;6.05;;;3.10;99.90;;;;;;5295913;27;20015;-72
2024/04/23 10:19:09;;;;;;;9.48;6.88;;;3.20;99.90;;;;;;5264601;27;20033;-72
2024/04/23 10:21:39;;;;;;;9.98;6.82;;;3.20;99.90;;;;;;5294592;27;19998;-72
2024/04/23 10:24:08;;;;;;;10.02;5.72;;;3.20;99.90;;;;;;5297358;27;20003;-72
2024/04/23 10:26:42;;;;;;;7.32;5.72;;;3.10;99.90;;;;;;5293805;27;20002;-72
2024/04/23 10:29:09;;;;;;;9.43;6.78;;;3.20;99.90;;;;;;5267565;26;19998;-72
2024/04/23 10:31:35;;;;;;;9.80;6.45;;;3.20;99.90;;;;;;5263622;27;20339;-73
2024/04/23 10:34:07;;;;;;;7.05;5.93;;;3.20;99.90;;;;;;5300334;26;20571;-72
2024/04/23 10:36:38;;;;;;;7.03;5.72;;;3.20;99.90;;;;;;5298429;27;20075;-72
2024/04/23 10:39:11;;;;;;;9.10;5.50;;;3.20;99.90;;;;;;5296133;27;20006;-72
2024/04/23 10:41:40;;;;;;;10.20;5.78;;;3.10;99.90;;;;;;5293006;27;20012;-72
2024/04/23 10:44:11;;;;;;;8.68;5.68;;;3.20;99.90;;;;;;5270467;27;20630;-72
2024/04/23 10:46:40;;;;;;;7.25;5.25;;;3.20;99.90;;;;;;5298237;26;20001;-72
2024/04/23 10:49:16;;;;;;;8.98;6.18;;;3.20;99.90;;;;;;5295047;27;20002;-72
2024/04/23 10:51:46;;;;;;;8.77;6.32;;;3.30;99.90;;;;;;5296805;27;20008;-73
2024/04/23 10:54:19;;;;;;;8.13;6.18;;;3.30;99.90;;;;;;5299960;27;20020;-72
2024/04/23 10:56:57;;;;;;;6.63;5.60;;;3.30;99.90;;;;;;5295020;27;20835;-72
2024/04/23 10:59:23;;;;;;;7.28;5.15;;;3.40;99.90;;;;;;5299189;26;20012;-72
2024/04/23 11:01:55;;;;;;;8.60;6.38;;;3.30;99.90;;;;;;5263743;27;20343;-72
2024/04/23 11:04:47;;;;;;;9.23;6.07;;;3.30;99.90;;;;;;5298084;27;20001;-72
2024/04/23 11:07:25;;;;;;;8.10;5.50;;;3.40;99.90;;;;;;5289888;26;20776;-72
2024/04/23 11:09:57;;;;;;;7.75;4.95;;;3.40;99.90;;;;;;5269797;27;20036;-72
2024/04/23 11:12:24;;;;;;;14.27;5.93;;;3.50;99.90;;;;;;5269438;27;20012;-72
2024/04/23 11:14:50;;;;;;;7.93;5.70;;;3.50;99.90;;;;;;5270252;27;20041;-72
2024/04/23 11:17:16;;;;;;;8.48;5.68;;;3.50;99.90;;;;;;5298054;27;20041;-72
2024/04/23 11:19:55;;;;;;;7.68;6.05;;;3.50;99.90;;;;;;5267956;26;19998;-72
2024/04/23 11:22:38;;;;;;;7.47;5.22;;;3.40;99.90;;;;;;5260855;27;20451;-73
2024/04/23 11:25:12;;;;;;;8.68;5.88;;;3.40;99.90;;;;;;5300029;27;19997;-72
2024/04/23 11:27:37;;;;;;;8.98;6.10;;;3.40;99.90;;;;;;5266782;27;20061;-72
2024/04/23 11:30:05;;;;;;;7.72;5.25;;;3.40;99.90;;;;;;5269576;27;19998;-72
2024/04/23 11:32:31;;;;;;;7.78;5.38;;;3.40;99.90;;;;;;5267709;27;20076;-73
2024/04/23 11:34:57;;;;;;;8.18;5.53;;;3.40;99.90;;;;;;5294488;26;19998;-72
2024/04/23 11:37:24;;;;;;;9.20;6.65;;;3.40;99.90;;;;;;5265273;27;20142;-72
2024/04/23 11:40:02;;;;;;;8.93;6.05;;;3.50;99.90;;;;;;5291491;27;20018;-72
2024/04/23 11:42:30;;;;;;;8.90;5.40;;;3.50;99.90;;;;;;5296696;27;20009;-72
2024/04/23 11:45:00;;;;;;;7.13;5.27;;;3.50;99.90;;;;;;5267109;27;20006;-72
2024/04/23 11:47:27;;;;;;;7.53;5.35;;;3.50;99.90;;;;;;5269807;27;19994;-72
2024/04/23 11:49:54;;;;;;;6.47;4.97;;;3.50;99.90;;;;;;5298264;26;20009;-72
2024/04/23 11:52:23;;;;;;;8.07;5.95;;;3.50;99.90;;;;;;5269792;27;20920;-72
2024/04/23 11:54:51;;;;;;;7.65;5.57;;;3.50;99.90;;;;;;5267520;27;20016;-72
2024/04/23 11:57:18;;;;;;;8.63;5.00;;;3.50;99.90;;;;;;5296403;27;20475;-72
2024/04/23 11:59:49;;;;;;;8.43;5.17;;;3.50;99.90;;;;;;5292033;27;19998;-73
2024/04/23 12:02:16;;;;;;;7.63;5.43;;;3.50;99.90;;;;;;5290359;27;20090;-72
2024/04/23 12:04:43;;;;;;;6.95;5.13;;;3.50;99.90;;;;;;5291238;26;20005;-72
2024/04/23 12:07:13;;;;;;;9.35;5.82;;;3.50;99.90;;;;;;5265545;27;20442;-75
2024/04/23 12:09:39;;;;;;;9.18;5.00;;;3.40;99.90;;;;;;5291374;27;20014;-72
2024/04/23 12:12:05;;;;;;;7.43;5.18;;;3.50;99.90;;;;;;5297780;27;20017;-72
2024/04/23 12:14:32;;;;;;;7.95;5.13;;;3.50;99.90;;;;;;5261263;27;20043;-73
2024/04/23 12:16:58;;;;;;;7.20;5.40;;;3.50;99.90;;;;;;5296792;26;20544;-72
2024/04/23 12:19:25;;;;;;;7.80;5.10;;;3.50;99.90;;;;;;5292748;26;20124;-73
2024/04/23 12:21:51;;;;;;;8.68;5.18;;;3.50;99.90;;;;;;5295990;27;20001;-72
2024/04/23 12:24:17;;;;;;;9.63;5.80;;;3.50;99.90;;;;;;5289192;27;20052;-72
2024/04/23 12:26:43;;;;;;;7.82;5.47;;;3.60;99.90;;;;;;5294552;27;20091;-72
2024/04/23 12:29:10;;;;;;;9.38;5.05;;;3.60;99.90;;;;;;5264493;27;20016;-72
2024/04/23 12:31:36;;;;;;;6.60;5.65;;;3.60;99.90;;;;;;5290517;27;19994;-72
2024/04/23 12:34:02;;;;;;;7.60;5.28;;;3.60;99.90;;;;;;5294010;27;20018;-72
2024/04/23 12:36:27;;;;;;;9.38;5.80;;;3.60;99.90;;;;;;5297533;27;20072;-72
2024/04/23 12:38:53;;;;;;;7.72;5.53;;;3.50;99.90;;;;;;5260738;27;20803;-73
2024/04/23 12:41:25;;;;;;;9.93;6.50;;;3.50;99.90;;;;;;5289504;27;19998;-73
2024/04/23 12:43:51;;;;;;;7.60;5.85;;;3.40;99.90;;;;;;5263932;27;20689;-72
2024/04/23 12:46:20;;;;;;;7.53;6.00;;;3.40;99.90;;;;;;5293241;26;20001;-72
2024/04/23 12:48:49;;;;;;;8.38;5.85;;;3.40;99.90;;;;;;5289806;26;19998;-72
2024/04/23 12:51:14;;;;;;;9.70;6.55;;;3.30;99.90;;;;;;5288810;27;19994;-73
2024/04/23 12:53:40;;;;;;;7.70;5.85;;;3.30;99.90;;;;;;5259568;27;20386;-73
2024/04/23 12:56:07;;;;;;;8.23;5.72;;;3.30;99.90;;;;;;5293436;27;20016;-74
2024/04/23 12:58:35;;;;;;;6.90;5.35;;;3.30;99.90;;;;;;5260969;27;20006;-74
2024/04/23 13:01:01;;;;;;;7.07;5.32;;;3.40;99.90;;;;;;5259486;27;20120;-73
2024/04/23 13:03:26;;;;;;;8.02;5.93;;;3.40;99.90;;;;;;5295387;27;20005;-73